sensor_id;sensor_type;location;lat;lon;timestamp;P1;durP1;ratioP1;P2;durP2;ratioP2
9188;SDS011;34313;50.780;6.084;2024-01-30T00:01:41;6.70;;;4.80;;
9188;SDS011;34313;50.780;6.084;2024-01-30T00:04:06;8.60;;;5.17;;
9188;SDS011;34313;50.780;6.084;2024-01-30T00:06:32;8.90;;;5.63;;
9188;SDS011;34313;50.780;6.084;2024-01-30T00:08:57;7.13;;;5.30;;
9188;SDS011;34313;50.780;6.084;2024-01-30T00:11:23;6.50;;;4.80;;
9188;SDS011;34313;50.780;6.084;2024-01-30T00:13:50;9.07;;;5.20;;
9188;SDS011;34313;50.780;6.084;2024-01-30T00:16:22;9.13;;;5.67;;
9188;SDS011;34313;50.780;6.084;2024-01-30T00:18:51;8.60;;;5.33;;
9188;SDS011;34313;50.780;6.084;2024-01-30T00:21:17;8.17;;;5.40;;
9188;SDS011;34313;50.780;6.084;2024-01-30T00:23:43;7.30;;;5.17;;
9188;SDS011;34313;50.780;6.084;2024-01-30T00:26:09;6.17;;;4.70;;
9188;SDS011;34313;50.780;6.084;2024-01-30T00:28:34;11.70;;;5.67;;
9188;SDS011;34313;50.780;6.084;2024-01-30T00:31:00;10.30;;;5.93;;
9188;SDS011;34313;50.780;6.084;2024-01-30T00:33:28;8.57;;;5.57;;
9188;SDS011;34313;50.780;6.084;2024-01-30T00:35:53;8.33;;;4.70;;
9188;SDS011;34313;50.780;6.084;2024-01-30T00:38:18;8.27;;;5.77;;
9188;SDS011;34313;50.780;6.084;2024-01-30T00:40:43;5.57;;;4.47;;
9188;SDS011;34313;50.780;6.084;2024-01-30T00:43:09;10.33;;;4.70;;
9188;SDS011;34313;50.780;6.084;2024-01-30T00:45:34;7.23;;;4.70;;
9188;SDS011;34313;50.780;6.084;2024-01-30T00:47:59;6.53;;;4.83;;
9188;SDS011;34313;50.780;6.084;2024-01-30T00:50:25;9.53;;;5.00;;
9188;SDS011;34313;50.780;6.084;2024-01-30T00:52:50;7.53;;;5.07;;
9188;SDS011;34313;50.780;6.084;2024-01-30T00:55:15;7.17;;;4.60;;
9188;SDS011;34313;50.780;6.084;2024-01-30T00:57:40;12.27;;;5.23;;
9188;SDS011;34313;50.780;6.084;2024-01-30T01:00:06;7.90;;;4.80;;
9188;SDS011;34313;50.780;6.084;2024-01-30T01:02:36;12.10;;;5.07;;
9188;SDS011;34313;50.780;6.084;2024-01-30T01:05:02;8.97;;;5.10;;
9188;SDS011;34313;50.780;6.084;2024-01-30T01:07:28;6.63;;;4.77;;
9188;SDS011;34313;50.780;6.084;2024-01-30T01:09:53;5.57;;;4.50;;
9188;SDS011;34313;50.780;6.084;2024-01-30T01:12:18;8.20;;;4.37;;
9188;SDS011;34313;50.780;6.084;2024-01-30T01:14:43;7.73;;;4.90;;
9188;SDS011;34313;50.780;6.084;2024-01-30T01:17:09;5.67;;;3.67;;
9188;SDS011;34313;50.780;6.084;2024-01-30T01:19:34;6.77;;;4.70;;
9188;SDS011;34313;50.780;6.084;2024-01-30T01:21:59;5.90;;;4.27;;
9188;SDS011;34313;50.780;6.084;2024-01-30T01:24:24;9.23;;;5.10;;
9188;SDS011;34313;50.780;6.084;2024-01-30T01:26:50;5.83;;;4.33;;
9188;SDS011;34313;50.780;6.084;2024-01-30T01:29:15;7.40;;;4.10;;
9188;SDS011;34313;50.780;6.084;2024-01-30T01:31:41;6.87;;;4.20;;
9188;SDS011;34313;50.780;6.084;2024-01-30T01:34:12;5.93;;;4.47;;
9188;SDS011;34313;50.780;6.084;2024-01-30T01:36:38;7.20;;;4.60;;
9188;SDS011;34313;50.780;6.084;2024-01-30T01:39:04;5.80;;;4.03;;
9188;SDS011;34313;50.780;6.084;2024-01-30T01:41:30;6.20;;;5.07;;
9188;SDS011;34313;50.780;6.084;2024-01-30T01:43:57;8.80;;;4.47;;
9188;SDS011;34313;50.780;6.084;2024-01-30T01:46:22;7.03;;;4.47;;
9188;SDS011;34313;50.780;6.084;2024-01-30T01:48:47;7.70;;;4.77;;
9188;SDS011;34313;50.780;6.084;2024-01-30T01:51:13;8.20;;;5.00;;
9188;SDS011;34313;50.780;6.084;2024-01-30T01:53:39;7.53;;;4.53;;
9188;SDS011;34313;50.780;6.084;2024-01-30T01:56:05;5.17;;;4.47;;
9188;SDS011;34313;50.780;6.084;2024-01-30T01:58:31;6.53;;;4.40;;
9188;SDS011;34313;50.780;6.084;2024-01-30T02:00:56;6.50;;;4.57;;
9188;SDS011;34313;50.780;6.084;2024-01-30T02:03:23;8.23;;;4.77;;
9188;SDS011;34313;50.780;6.084;2024-01-30T02:05:49;7.77;;;4.30;;
9188;SDS011;34313;50.780;6.084;2024-01-30T02:08:16;7.50;;;4.60;;
9188;SDS011;34313;50.780;6.084;2024-01-30T02:10:41;7.23;;;4.20;;
9188;SDS011;34313;50.780;6.084;2024-01-30T02:13:06;9.73;;;4.53;;
9188;SDS011;34313;50.780;6.084;2024-01-30T02:15:32;6.10;;;4.33;;
9188;SDS011;34313;50.780;6.084;2024-01-30T02:17:57;5.00;;;4.33;;
9188;SDS011;34313;50.780;6.084;2024-01-30T02:20:23;5.87;;;4.60;;
9188;SDS011;34313;50.780;6.084;2024-01-30T02:22:50;5.97;;;4.33;;
9188;SDS011;34313;50.780;6.084;2024-01-30T02:25:18;9.30;;;4.40;;
9188;SDS011;34313;50.780;6.084;2024-01-30T02:27:43;5.40;;;4.40;;
9188;SDS011;34313;50.780;6.084;2024-01-30T02:30:08;8.67;;;4.30;;
9188;SDS011;34313;50.780;6.084;2024-01-30T02:32:35;8.73;;;4.30;;
9188;SDS011;34313;50.780;6.084;2024-01-30T02:35:00;7.73;;;4.20;;
9188;SDS011;34313;50.780;6.084;2024-01-30T02:37:25;6.30;;;4.60;;
9188;SDS011;34313;50.780;6.084;2024-01-30T02:39:50;7.10;;;4.60;;
9188;SDS011;34313;50.780;6.084;2024-01-30T02:42:16;7.00;;;4.47;;
9188;SDS011;34313;50.780;6.084;2024-01-30T02:44:41;7.23;;;4.43;;
9188;SDS011;34313;50.780;6.084;2024-01-30T02:47:06;5.73;;;3.97;;
9188;SDS011;34313;50.780;6.084;2024-01-30T02:49:32;5.03;;;4.20;;
9188;SDS011;34313;50.780;6.084;2024-01-30T02:51:57;10.13;;;4.60;;
9188;SDS011;34313;50.780;6.084;2024-01-30T02:54:22;5.80;;;3.90;;
9188;SDS011;34313;50.780;6.084;2024-01-30T02:56:47;7.70;;;4.40;;
9188;SDS011;34313;50.780;6.084;2024-01-30T02:59:13;6.43;;;4.57;;
9188;SDS011;34313;50.780;6.084;2024-01-30T03:01:44;5.13;;;4.20;;
9188;SDS011;34313;50.780;6.084;2024-01-30T03:04:10;5.77;;;4.57;;
9188;SDS011;34313;50.780;6.084;2024-01-30T03:06:36;5.07;;;4.57;;
9188;SDS011;34313;50.780;6.084;2024-01-30T03:09:01;6.33;;;4.10;;
9188;SDS011;34313;50.780;6.084;2024-01-30T03:11:27;7.50;;;4.07;;
9188;SDS011;34313;50.780;6.084;2024-01-30T03:13:52;5.60;;;3.90;;
9188;SDS011;34313;50.780;6.084;2024-01-30T03:16:18;5.30;;;4.13;;
9188;SDS011;34313;50.780;6.084;2024-01-30T03:18:43;8.83;;;4.03;;
9188;SDS011;34313;50.780;6.084;2024-01-30T03:21:08;4.80;;;4.10;;
9188;SDS011;34313;50.780;6.084;2024-01-30T03:23:33;5.60;;;3.77;;
9188;SDS011;34313;50.780;6.084;2024-01-30T03:25:59;6.83;;;4.70;;
9188;SDS011;34313;50.780;6.084;2024-01-30T03:28:24;6.00;;;3.83;;
9188;SDS011;34313;50.780;6.084;2024-01-30T03:30:49;11.20;;;4.23;;
9188;SDS011;34313;50.780;6.084;2024-01-30T03:33:15;5.03;;;3.87;;
9188;SDS011;34313;50.780;6.084;2024-01-30T03:35:40;8.67;;;4.83;;
9188;SDS011;34313;50.780;6.084;2024-01-30T03:38:05;7.70;;;4.80;;
9188;SDS011;34313;50.780;6.084;2024-01-30T03:40:30;5.27;;;4.17;;
9188;SDS011;34313;50.780;6.084;2024-01-30T03:42:56;7.47;;;4.03;;
9188;SDS011;34313;50.780;6.084;2024-01-30T03:45:21;5.60;;;4.20;;
9188;SDS011;34313;50.780;6.084;2024-01-30T03:47:46;7.63;;;4.13;;
9188;SDS011;34313;50.780;6.084;2024-01-30T03:50:12;7.17;;;3.80;;
9188;SDS011;34313;50.780;6.084;2024-01-30T03:52:37;8.13;;;4.33;;
9188;SDS011;34313;50.780;6.084;2024-01-30T03:55:02;6.50;;;4.77;;
9188;SDS011;34313;50.780;6.084;2024-01-30T03:57:28;4.93;;;4.00;;
9188;SDS011;34313;50.780;6.084;2024-01-30T03:59:53;7.63;;;4.63;;
9188;SDS011;34313;50.780;6.084;2024-01-30T04:02:19;5.77;;;4.00;;
9188;SDS011;34313;50.780;6.084;2024-01-30T04:04:44;6.80;;;4.00;;
9188;SDS011;34313;50.780;6.084;2024-01-30T04:07:09;5.53;;;3.60;;
9188;SDS011;34313;50.780;6.084;2024-01-30T04:09:34;5.60;;;4.13;;
9188;SDS011;34313;50.780;6.084;2024-01-30T04:12:00;5.60;;;4.13;;
9188;SDS011;34313;50.780;6.084;2024-01-30T04:14:27;7.43;;;4.03;;
9188;SDS011;34313;50.780;6.084;2024-01-30T04:16:53;4.70;;;3.90;;
9188;SDS011;34313;50.780;6.084;2024-01-30T04:19:18;10.40;;;4.17;;
9188;SDS011;34313;50.780;6.084;2024-01-30T04:21:43;7.43;;;4.63;;
9188;SDS011;34313;50.780;6.084;2024-01-30T04:24:08;6.67;;;4.37;;
9188;SDS011;34313;50.780;6.084;2024-01-30T04:26:34;6.90;;;4.40;;
9188;SDS011;34313;50.780;6.084;2024-01-30T04:28:59;9.10;;;4.70;;
9188;SDS011;34313;50.780;6.084;2024-01-30T04:31:24;5.17;;;4.27;;
9188;SDS011;34313;50.780;6.084;2024-01-30T04:33:50;9.00;;;5.63;;
9188;SDS011;34313;50.780;6.084;2024-01-30T04:36:15;6.60;;;4.10;;
9188;SDS011;34313;50.780;6.084;2024-01-30T04:38:40;7.40;;;4.23;;
9188;SDS011;34313;50.780;6.084;2024-01-30T04:41:05;6.20;;;4.07;;
9188;SDS011;34313;50.780;6.084;2024-01-30T04:43:31;8.13;;;4.40;;
9188;SDS011;34313;50.780;6.084;2024-01-30T04:45:56;6.10;;;3.77;;
9188;SDS011;34313;50.780;6.084;2024-01-30T04:48:21;6.47;;;4.43;;
9188;SDS011;34313;50.780;6.084;2024-01-30T04:50:47;5.10;;;4.20;;
9188;SDS011;34313;50.780;6.084;2024-01-30T04:53:12;5.80;;;4.37;;
9188;SDS011;34313;50.780;6.084;2024-01-30T04:55:37;4.80;;;4.07;;
9188;SDS011;34313;50.780;6.084;2024-01-30T04:58:02;9.20;;;3.73;;
9188;SDS011;34313;50.780;6.084;2024-01-30T05:00:28;5.70;;;4.80;;
9188;SDS011;34313;50.780;6.084;2024-01-30T05:02:54;6.70;;;4.53;;
9188;SDS011;34313;50.780;6.084;2024-01-30T05:05:20;9.50;;;4.50;;
9188;SDS011;34313;50.780;6.084;2024-01-30T05:07:46;5.00;;;3.97;;
9188;SDS011;34313;50.780;6.084;2024-01-30T05:10:12;5.20;;;3.80;;
9188;SDS011;34313;50.780;6.084;2024-01-30T05:12:38;5.07;;;3.90;;
9188;SDS011;34313;50.780;6.084;2024-01-30T05:15:04;6.67;;;3.90;;
9188;SDS011;34313;50.780;6.084;2024-01-30T05:17:29;6.50;;;4.37;;
9188;SDS011;34313;50.780;6.084;2024-01-30T05:19:55;5.57;;;4.33;;
9188;SDS011;34313;50.780;6.084;2024-01-30T05:22:20;8.03;;;4.67;;
9188;SDS011;34313;50.780;6.084;2024-01-30T05:24:45;8.93;;;5.07;;
9188;SDS011;34313;50.780;6.084;2024-01-30T05:27:10;7.63;;;4.87;;
9188;SDS011;34313;50.780;6.084;2024-01-30T05:29:38;6.83;;;4.30;;
9188;SDS011;34313;50.780;6.084;2024-01-30T05:32:03;6.90;;;4.57;;
9188;SDS011;34313;50.780;6.084;2024-01-30T05:34:30;9.07;;;4.70;;
9188;SDS011;34313;50.780;6.084;2024-01-30T05:36:55;5.47;;;4.10;;
9188;SDS011;34313;50.780;6.084;2024-01-30T05:39:21;5.40;;;4.30;;
9188;SDS011;34313;50.780;6.084;2024-01-30T05:41:46;7.83;;;4.70;;
9188;SDS011;34313;50.780;6.084;2024-01-30T05:44:11;9.27;;;4.90;;
9188;SDS011;34313;50.780;6.084;2024-01-30T05:46:37;7.07;;;4.93;;
9188;SDS011;34313;50.780;6.084;2024-01-30T05:49:02;6.70;;;4.37;;
9188;SDS011;34313;50.780;6.084;2024-01-30T05:51:27;5.73;;;4.50;;
9188;SDS011;34313;50.780;6.084;2024-01-30T05:53:53;11.03;;;4.87;;
9188;SDS011;34313;50.780;6.084;2024-01-30T05:56:18;6.23;;;4.40;;
9188;SDS011;34313;50.780;6.084;2024-01-30T05:58:44;6.93;;;4.87;;
9188;SDS011;34313;50.780;6.084;2024-01-30T06:01:09;6.60;;;4.67;;
9188;SDS011;34313;50.780;6.084;2024-01-30T06:03:34;6.03;;;4.07;;
9188;SDS011;34313;50.780;6.084;2024-01-30T06:06:00;7.13;;;4.60;;
9188;SDS011;34313;50.780;6.084;2024-01-30T06:08:25;5.67;;;4.40;;
9188;SDS011;34313;50.780;6.084;2024-01-30T06:10:50;12.23;;;4.47;;
9188;SDS011;34313;50.780;6.084;2024-01-30T06:13:15;7.70;;;5.20;;
9188;SDS011;34313;50.780;6.084;2024-01-30T06:15:41;8.73;;;4.60;;
9188;SDS011;34313;50.780;6.084;2024-01-30T06:18:06;6.40;;;4.10;;
9188;SDS011;34313;50.780;6.084;2024-01-30T06:20:31;10.80;;;4.57;;
9188;SDS011;34313;50.780;6.084;2024-01-30T06:22:57;7.80;;;4.17;;
9188;SDS011;34313;50.780;6.084;2024-01-30T06:25:22;6.47;;;4.27;;
9188;SDS011;34313;50.780;6.084;2024-01-30T06:27:47;6.40;;;4.40;;
9188;SDS011;34313;50.780;6.084;2024-01-30T06:30:13;5.17;;;4.10;;
9188;SDS011;34313;50.780;6.084;2024-01-30T06:32:38;7.00;;;4.47;;
9188;SDS011;34313;50.780;6.084;2024-01-30T06:35:04;8.07;;;4.60;;
9188;SDS011;34313;50.780;6.084;2024-01-30T06:37:30;6.37;;;4.57;;
9188;SDS011;34313;50.780;6.084;2024-01-30T06:39:56;8.87;;;4.00;;
9188;SDS011;34313;50.780;6.084;2024-01-30T06:42:21;9.17;;;4.90;;
9188;SDS011;34313;50.780;6.084;2024-01-30T06:44:46;6.43;;;4.90;;
9188;SDS011;34313;50.780;6.084;2024-01-30T06:47:12;7.17;;;4.30;;
9188;SDS011;34313;50.780;6.084;2024-01-30T06:49:37;8.20;;;4.97;;
9188;SDS011;34313;50.780;6.084;2024-01-30T06:52:06;6.83;;;4.27;;
9188;SDS011;34313;50.780;6.084;2024-01-30T06:54:31;5.43;;;4.10;;
9188;SDS011;34313;50.780;6.084;2024-01-30T06:56:57;6.80;;;4.90;;
9188;SDS011;34313;50.780;6.084;2024-01-30T06:59:23;7.93;;;4.60;;
9188;SDS011;34313;50.780;6.084;2024-01-30T07:01:48;7.63;;;4.87;;
9188;SDS011;34313;50.780;6.084;2024-01-30T07:04:13;5.77;;;4.70;;
9188;SDS011;34313;50.780;6.084;2024-01-30T07:06:39;7.13;;;4.10;;
9188;SDS011;34313;50.780;6.084;2024-01-30T07:09:04;6.00;;;5.00;;
9188;SDS011;34313;50.780;6.084;2024-01-30T07:11:30;8.40;;;4.93;;
9188;SDS011;34313;50.780;6.084;2024-01-30T07:13:55;7.30;;;4.43;;
9188;SDS011;34313;50.780;6.084;2024-01-30T07:16:21;6.40;;;4.70;;
9188;SDS011;34313;50.780;6.084;2024-01-30T07:18:47;10.70;;;4.90;;
9188;SDS011;34313;50.780;6.084;2024-01-30T07:21:12;5.77;;;4.23;;
9188;SDS011;34313;50.780;6.084;2024-01-30T07:23:38;5.77;;;4.90;;
9188;SDS011;34313;50.780;6.084;2024-01-30T07:26:04;6.47;;;5.13;;
9188;SDS011;34313;50.780;6.084;2024-01-30T07:28:30;7.43;;;4.57;;
9188;SDS011;34313;50.780;6.084;2024-01-30T07:30:55;7.60;;;4.77;;
9188;SDS011;34313;50.780;6.084;2024-01-30T07:33:20;11.90;;;5.10;;
9188;SDS011;34313;50.780;6.084;2024-01-30T07:35:46;10.30;;;4.97;;
9188;SDS011;34313;50.780;6.084;2024-01-30T07:38:11;7.43;;;6.30;;
9188;SDS011;34313;50.780;6.084;2024-01-30T07:40:37;9.17;;;5.00;;
9188;SDS011;34313;50.780;6.084;2024-01-30T07:43:02;8.80;;;4.80;;
9188;SDS011;34313;50.780;6.084;2024-01-30T07:45:28;6.03;;;4.63;;
9188;SDS011;34313;50.780;6.084;2024-01-30T07:47:57;10.03;;;5.33;;
9188;SDS011;34313;50.780;6.084;2024-01-30T07:50:24;7.80;;;4.77;;
9188;SDS011;34313;50.780;6.084;2024-01-30T07:52:49;13.43;;;5.57;;
9188;SDS011;34313;50.780;6.084;2024-01-30T07:55:19;7.57;;;5.60;;
9188;SDS011;34313;50.780;6.084;2024-01-30T07:57:45;9.73;;;5.50;;
9188;SDS011;34313;50.780;6.084;2024-01-30T08:00:11;8.03;;;5.47;;
9188;SDS011;34313;50.780;6.084;2024-01-30T08:02:37;6.73;;;5.30;;
9188;SDS011;34313;50.780;6.084;2024-01-30T08:05:02;7.13;;;4.90;;
9188;SDS011;34313;50.780;6.084;2024-01-30T08:07:27;13.33;;;6.13;;
9188;SDS011;34313;50.780;6.084;2024-01-30T08:09:54;10.30;;;5.00;;
9188;SDS011;34313;50.780;6.084;2024-01-30T08:12:20;7.40;;;5.50;;
9188;SDS011;34313;50.780;6.084;2024-01-30T08:14:45;8.50;;;5.00;;
9188;SDS011;34313;50.780;6.084;2024-01-30T08:17:10;11.23;;;5.13;;
9188;SDS011;34313;50.780;6.084;2024-01-30T08:19:35;8.23;;;5.63;;
9188;SDS011;34313;50.780;6.084;2024-01-30T08:22:01;9.50;;;6.20;;
9188;SDS011;34313;50.780;6.084;2024-01-30T08:24:26;12.40;;;6.17;;
9188;SDS011;34313;50.780;6.084;2024-01-30T08:26:51;7.70;;;5.40;;
9188;SDS011;34313;50.780;6.084;2024-01-30T08:29:16;8.40;;;6.10;;
9188;SDS011;34313;50.780;6.084;2024-01-30T08:31:42;9.40;;;5.57;;
9188;SDS011;34313;50.780;6.084;2024-01-30T08:34:07;7.87;;;5.60;;
9188;SDS011;34313;50.780;6.084;2024-01-30T08:36:32;12.57;;;7.30;;
9188;SDS011;34313;50.780;6.084;2024-01-30T08:38:58;15.63;;;6.23;;
9188;SDS011;34313;50.780;6.084;2024-01-30T08:41:23;9.30;;;5.83;;
9188;SDS011;34313;50.780;6.084;2024-01-30T08:43:48;11.00;;;5.90;;
9188;SDS011;34313;50.780;6.084;2024-01-30T08:46:17;10.27;;;5.63;;
9188;SDS011;34313;50.780;6.084;2024-01-30T08:48:42;12.90;;;6.37;;
9188;SDS011;34313;50.780;6.084;2024-01-30T08:51:08;11.87;;;5.77;;
9188;SDS011;34313;50.780;6.084;2024-01-30T08:53:33;9.10;;;5.53;;
9188;SDS011;34313;50.780;6.084;2024-01-30T08:55:59;8.37;;;5.00;;
9188;SDS011;34313;50.780;6.084;2024-01-30T08:58:24;10.03;;;5.60;;
9188;SDS011;34313;50.780;6.084;2024-01-30T09:00:50;8.73;;;5.00;;
9188;SDS011;34313;50.780;6.084;2024-01-30T09:03:16;10.00;;;5.30;;
9188;SDS011;34313;50.780;6.084;2024-01-30T09:05:42;9.07;;;5.70;;
9188;SDS011;34313;50.780;6.084;2024-01-30T09:08:07;15.57;;;5.87;;
9188;SDS011;34313;50.780;6.084;2024-01-30T09:10:32;13.83;;;6.30;;
9188;SDS011;34313;50.780;6.084;2024-01-30T09:12:57;10.07;;;5.40;;
9188;SDS011;34313;50.780;6.084;2024-01-30T09:15:23;7.90;;;4.90;;
9188;SDS011;34313;50.780;6.084;2024-01-30T09:17:48;13.17;;;5.60;;
9188;SDS011;34313;50.780;6.084;2024-01-30T09:20:13;16.10;;;5.67;;
9188;SDS011;34313;50.780;6.084;2024-01-30T09:22:39;13.40;;;5.60;;
9188;SDS011;34313;50.780;6.084;2024-01-30T09:25:04;9.93;;;4.90;;
9188;SDS011;34313;50.780;6.084;2024-01-30T09:27:29;9.10;;;5.17;;
9188;SDS011;34313;50.780;6.084;2024-01-30T09:29:55;12.40;;;5.03;;
9188;SDS011;34313;50.780;6.084;2024-01-30T09:32:21;12.40;;;4.77;;
9188;SDS011;34313;50.780;6.084;2024-01-30T09:34:46;11.80;;;4.70;;
9188;SDS011;34313;50.780;6.084;2024-01-30T09:37:11;12.93;;;5.13;;
9188;SDS011;34313;50.780;6.084;2024-01-30T09:39:36;11.53;;;4.20;;
9188;SDS011;34313;50.780;6.084;2024-01-30T09:42:07;15.07;;;4.90;;
9188;SDS011;34313;50.780;6.084;2024-01-30T09:44:42;12.73;;;5.47;;
9188;SDS011;34313;50.780;6.084;2024-01-30T09:47:08;7.10;;;4.80;;
9188;SDS011;34313;50.780;6.084;2024-01-30T09:49:35;9.60;;;4.60;;
9188;SDS011;34313;50.780;6.084;2024-01-30T09:52:02;10.90;;;6.10;;
9188;SDS011;34313;50.780;6.084;2024-01-30T09:54:31;13.07;;;5.30;;
9188;SDS011;34313;50.780;6.084;2024-01-30T09:56:57;9.03;;;4.30;;
9188;SDS011;34313;50.780;6.084;2024-01-30T09:59:23;11.97;;;4.97;;
9188;SDS011;34313;50.780;6.084;2024-01-30T10:01:49;10.00;;;4.33;;
9188;SDS011;34313;50.780;6.084;2024-01-30T10:04:15;10.63;;;5.07;;
9188;SDS011;34313;50.780;6.084;2024-01-30T10:06:40;8.73;;;5.33;;
9188;SDS011;34313;50.780;6.084;2024-01-30T10:09:07;9.43;;;5.53;;
9188;SDS011;34313;50.780;6.084;2024-01-30T10:11:33;14.13;;;5.00;;
9188;SDS011;34313;50.780;6.084;2024-01-30T10:13:59;10.40;;;4.80;;
9188;SDS011;34313;50.780;6.084;2024-01-30T10:16:25;9.10;;;4.60;;
9188;SDS011;34313;50.780;6.084;2024-01-30T10:18:50;20.67;;;5.50;;
9188;SDS011;34313;50.780;6.084;2024-01-30T10:21:15;9.37;;;4.70;;
9188;SDS011;34313;50.780;6.084;2024-01-30T10:23:41;8.57;;;5.00;;
9188;SDS011;34313;50.780;6.084;2024-01-30T10:26:09;9.87;;;4.90;;
9188;SDS011;34313;50.780;6.084;2024-01-30T10:28:34;13.87;;;5.70;;
9188;SDS011;34313;50.780;6.084;2024-01-30T10:31:00;9.77;;;5.17;;
9188;SDS011;34313;50.780;6.084;2024-01-30T10:33:28;12.93;;;5.70;;
9188;SDS011;34313;50.780;6.084;2024-01-30T10:35:55;15.80;;;6.30;;
9188;SDS011;34313;50.780;6.084;2024-01-30T10:38:25;11.23;;;5.03;;
9188;SDS011;34313;50.780;6.084;2024-01-30T10:40:55;13.70;;;5.80;;
9188;SDS011;34313;50.780;6.084;2024-01-30T10:43:22;21.43;;;6.73;;
9188;SDS011;34313;50.780;6.084;2024-01-30T10:45:48;16.23;;;6.03;;
9188;SDS011;34313;50.780;6.084;2024-01-30T10:48:16;14.00;;;6.40;;
9188;SDS011;34313;50.780;6.084;2024-01-30T10:50:47;19.97;;;6.37;;
9188;SDS011;34313;50.780;6.084;2024-01-30T10:53:15;12.47;;;5.90;;
9188;SDS011;34313;50.780;6.084;2024-01-30T10:55:42;10.30;;;5.93;;
9188;SDS011;34313;50.780;6.084;2024-01-30T10:58:08;13.60;;;5.60;;
9188;SDS011;34313;50.780;6.084;2024-01-30T11:00:36;11.90;;;5.30;;
9188;SDS011;34313;50.780;6.084;2024-01-30T11:03:02;10.00;;;5.70;;
9188;SDS011;34313;50.780;6.084;2024-01-30T11:05:28;14.10;;;5.77;;
9188;SDS011;34313;50.780;6.084;2024-01-30T11:07:54;12.10;;;5.83;;
9188;SDS011;34313;50.780;6.084;2024-01-30T11:10:19;10.97;;;5.63;;
9188;SDS011;34313;50.780;6.084;2024-01-30T11:12:45;9.97;;;5.87;;
9188;SDS011;34313;50.780;6.084;2024-01-30T11:15:17;13.83;;;5.77;;
9188;SDS011;34313;50.780;6.084;2024-01-30T11:22:48;7.63;;;5.23;;
9188;SDS011;34313;50.780;6.084;2024-01-30T11:25:17;6.10;;;5.07;;
9188;SDS011;34313;50.780;6.084;2024-01-30T11:27:44;10.33;;;6.23;;
9188;SDS011;34313;50.780;6.084;2024-01-30T11:30:20;9.27;;;5.50;;
9188;SDS011;34313;50.780;6.084;2024-01-30T11:35:34;7.70;;;4.77;;
9188;SDS011;34313;50.780;6.084;2024-01-30T11:38:01;9.23;;;5.40;;
9188;SDS011;34313;50.780;6.084;2024-01-30T11:40:28;8.73;;;5.67;;
9188;SDS011;34313;50.780;6.084;2024-01-30T11:42:54;11.73;;;6.10;;
9188;SDS011;34313;50.780;6.084;2024-01-30T11:45:20;9.43;;;5.40;;
9188;SDS011;34313;50.780;6.084;2024-01-30T11:47:46;14.77;;;6.30;;
9188;SDS011;34313;50.780;6.084;2024-01-30T11:50:12;9.83;;;6.10;;
9188;SDS011;34313;50.780;6.084;2024-01-30T11:52:38;10.00;;;6.07;;
9188;SDS011;34313;50.780;6.084;2024-01-30T11:55:04;11.07;;;5.53;;
9188;SDS011;34313;50.780;6.084;2024-01-30T11:57:30;13.77;;;6.30;;
9188;SDS011;34313;50.780;6.084;2024-01-30T11:59:55;14.30;;;6.43;;
9188;SDS011;34313;50.780;6.084;2024-01-30T12:02:20;13.57;;;6.30;;
9188;SDS011;34313;50.780;6.084;2024-01-30T12:04:46;13.07;;;6.93;;
9188;SDS011;34313;50.780;6.084;2024-01-30T12:07:11;12.00;;;6.90;;
9188;SDS011;34313;50.780;6.084;2024-01-30T12:09:40;10.50;;;6.77;;
9188;SDS011;34313;50.780;6.084;2024-01-30T12:12:06;12.47;;;6.63;;
9188;SDS011;34313;50.780;6.084;2024-01-30T12:14:32;10.30;;;6.63;;
9188;SDS011;34313;50.780;6.084;2024-01-30T12:16:57;11.20;;;6.73;;
9188;SDS011;34313;50.780;6.084;2024-01-30T12:19:26;12.57;;;6.47;;
9188;SDS011;34313;50.780;6.084;2024-01-30T12:21:55;20.07;;;7.10;;
9188;SDS011;34313;50.780;6.084;2024-01-30T12:24:22;15.27;;;8.00;;
9188;SDS011;34313;50.780;6.084;2024-01-30T12:26:47;15.30;;;7.07;;
9188;SDS011;34313;50.780;6.084;2024-01-30T12:29:14;13.30;;;8.00;;
9188;SDS011;34313;50.780;6.084;2024-01-30T12:31:41;15.03;;;7.90;;
9188;SDS011;34313;50.780;6.084;2024-01-30T12:34:07;15.73;;;7.80;;
9188;SDS011;34313;50.780;6.084;2024-01-30T12:36:32;17.93;;;7.17;;
9188;SDS011;34313;50.780;6.084;2024-01-30T12:39:00;21.93;;;7.87;;
9188;SDS011;34313;50.780;6.084;2024-01-30T12:41:26;14.33;;;6.93;;
9188;SDS011;34313;50.780;6.084;2024-01-30T12:43:54;14.53;;;7.50;;
9188;SDS011;34313;50.780;6.084;2024-01-30T12:46:20;14.63;;;7.20;;
9188;SDS011;34313;50.780;6.084;2024-01-30T12:48:45;11.70;;;6.63;;
9188;SDS011;34313;50.780;6.084;2024-01-30T12:51:10;14.27;;;7.30;;
9188;SDS011;34313;50.780;6.084;2024-01-30T12:53:36;13.23;;;7.33;;
9188;SDS011;34313;50.780;6.084;2024-01-30T12:56:02;10.63;;;6.87;;
9188;SDS011;34313;50.780;6.084;2024-01-30T12:58:27;9.87;;;6.83;;
9188;SDS011;34313;50.780;6.084;2024-01-30T13:00:53;14.67;;;7.00;;
9188;SDS011;34313;50.780;6.084;2024-01-30T13:03:19;18.03;;;7.47;;
9188;SDS011;34313;50.780;6.084;2024-01-30T13:05:44;21.90;;;8.57;;
9188;SDS011;34313;50.780;6.084;2024-01-30T13:08:09;15.97;;;8.10;;
9188;SDS011;34313;50.780;6.084;2024-01-30T13:10:35;10.70;;;7.40;;
9188;SDS011;34313;50.780;6.084;2024-01-30T13:13:00;12.83;;;7.30;;
9188;SDS011;34313;50.780;6.084;2024-01-30T13:15:25;16.23;;;7.60;;
9188;SDS011;34313;50.780;6.084;2024-01-30T13:17:50;18.90;;;8.20;;
9188;SDS011;34313;50.780;6.084;2024-01-30T13:20:17;11.07;;;7.63;;
9188;SDS011;34313;50.780;6.084;2024-01-30T13:22:45;15.90;;;8.40;;
9188;SDS011;34313;50.780;6.084;2024-01-30T13:25:10;15.00;;;7.60;;
9188;SDS011;34313;50.780;6.084;2024-01-30T13:27:36;18.83;;;8.50;;
9188;SDS011;34313;50.780;6.084;2024-01-30T13:30:02;14.13;;;8.13;;
9188;SDS011;34313;50.780;6.084;2024-01-30T13:32:28;17.20;;;7.60;;
9188;SDS011;34313;50.780;6.084;2024-01-30T13:34:54;15.97;;;7.97;;
9188;SDS011;34313;50.780;6.084;2024-01-30T13:37:19;16.70;;;7.33;;
9188;SDS011;34313;50.780;6.084;2024-01-30T13:39:44;20.20;;;9.50;;
9188;SDS011;34313;50.780;6.084;2024-01-30T13:42:09;14.63;;;8.47;;
9188;SDS011;34313;50.780;6.084;2024-01-30T13:44:35;14.17;;;8.10;;
9188;SDS011;34313;50.780;6.084;2024-01-30T13:47:00;19.20;;;8.33;;
9188;SDS011;34313;50.780;6.084;2024-01-30T13:49:26;14.07;;;8.20;;
9188;SDS011;34313;50.780;6.084;2024-01-30T13:51:52;16.87;;;8.27;;
9188;SDS011;34313;50.780;6.084;2024-01-30T13:54:17;13.60;;;7.87;;
9188;SDS011;34313;50.780;6.084;2024-01-30T13:56:43;22.17;;;8.90;;
9188;SDS011;34313;50.780;6.084;2024-01-30T13:59:08;16.57;;;7.80;;
9188;SDS011;34313;50.780;6.084;2024-01-30T14:01:33;17.93;;;8.37;;
9188;SDS011;34313;50.780;6.084;2024-01-30T14:03:59;14.90;;;8.93;;
9188;SDS011;34313;50.780;6.084;2024-01-30T14:06:24;12.93;;;8.60;;
9188;SDS011;34313;50.780;6.084;2024-01-30T14:08:49;12.33;;;7.73;;
9188;SDS011;34313;50.780;6.084;2024-01-30T14:11:15;17.60;;;8.67;;
9188;SDS011;34313;50.780;6.084;2024-01-30T14:13:40;12.57;;;7.63;;
9188;SDS011;34313;50.780;6.084;2024-01-30T14:16:05;14.77;;;7.83;;
9188;SDS011;34313;50.780;6.084;2024-01-30T14:18:31;14.13;;;7.57;;
9188;SDS011;34313;50.780;6.084;2024-01-30T14:20:56;11.30;;;7.30;;
9188;SDS011;34313;50.780;6.084;2024-01-30T14:23:22;17.07;;;7.77;;
9188;SDS011;34313;50.780;6.084;2024-01-30T14:25:47;14.60;;;8.30;;
9188;SDS011;34313;50.780;6.084;2024-01-30T14:28:12;19.83;;;8.13;;
9188;SDS011;34313;50.780;6.084;2024-01-30T14:30:38;15.57;;;8.37;;
9188;SDS011;34313;50.780;6.084;2024-01-30T14:33:03;21.47;;;8.50;;
9188;SDS011;34313;50.780;6.084;2024-01-30T14:35:29;16.80;;;8.37;;
9188;SDS011;34313;50.780;6.084;2024-01-30T14:37:55;12.03;;;8.03;;
9188;SDS011;34313;50.780;6.084;2024-01-30T14:40:20;17.50;;;8.53;;
9188;SDS011;34313;50.780;6.084;2024-01-30T14:42:46;12.63;;;8.27;;
9188;SDS011;34313;50.780;6.084;2024-01-30T14:45:11;24.97;;;12.23;;
9188;SDS011;34313;50.780;6.084;2024-01-30T14:47:37;16.43;;;8.77;;
9188;SDS011;34313;50.780;6.084;2024-01-30T14:50:03;16.13;;;7.70;;
9188;SDS011;34313;50.780;6.084;2024-01-30T14:52:30;13.37;;;7.73;;
9188;SDS011;34313;50.780;6.084;2024-01-30T14:54:56;14.10;;;7.40;;